Dickinson, North Dakota
Current Conditions -  °F | °C
As of 6:56 AM on Monday 20 Oct 2014 (Local Time) from KDIK Reporting Station
Clear Clear  
Wind Chill: 33°   Ceiling: Unl
Heat Index: 40°   Visibility: 10mi
Dew Point: 34°   Wind: 12mph
Humidity: 79%   Direction: 170°S
Pressure: 30"   Gusts: NA
Location:  46.88°N, 102.79°W
Report Text: KDIK 201256Z AUTO 17010KT 10SM CLR 04/01 A3000 RMK AO2 SLP166 T00440011
Loading
Personal Weather Stations






























Interactive Weather Map
Tropical Storm Tracking
New forecast layout! Learn more

10-Day Weather Forecast

Advertisements
Track Severe Weather on mobile